This is the latest recevied weather packets stored in our database for station/object DL7MAP-13. If no packets are shown the sender has not sent any weather packets the latest 10 day(s).
| Time | Temp. | Humidity | Pressure | Rain* | Wind** | Luminosity | Snow |
|---|---|---|---|---|---|---|---|
| 1777626787 | 20.56° C | 37% | 1024.4 hPa | - | - | - | - |
| 1777625887 | 20.56° C | 38% | 1024.7 hPa | - | - | - | - |
| 1777624987 | 18.89° C | 39% | 1024.5 hPa | - | - | - | - |
| 1777624087 | 18.89° C | 40% | 1023.8 hPa | - | - | - | - |
| 1777623187 | 18.89° C | 40% | 1024.4 hPa | - | - | - | - |
| 1777622287 | 19.44° C | 41% | 1024.4 hPa | - | - | - | - |
| 1777621387 | 18.89° C | 41% | 1023.8 hPa | - | - | - | - |
| 1777620487 | 17.78° C | 43% | 1024.2 hPa | - | - | - | - |
| 1777619586 | 17.78° C | 44% | 1024.6 hPa | - | - | - | - |
| 1777618687 | 17.78° C | 44% | 1024.8 hPa | - | - | - | - |
| 1777617786 | 17.22° C | 47% | 1024.3 hPa | - | - | - | - |
| 1777616887 | 16.67° C | 49% | 1024.6 hPa | - | - | - | - |
| 1777615987 | 16.11° C | 54% | 1024.4 hPa | - | - | - | - |
| 1777615087 | 15° C | 58% | 1024.5 hPa | - | - | - | - |
| 1777614187 | 13.89° C | 60% | 1024.4 hPa | - | - | - | - |
| 1777613287 | 14.44° C | 61% | 1024.5 hPa | - | - | - | - |
| 1777612387 | 13.33° C | 67% | 1024.5 hPa | - | - | - | - |
| 1777611487 | 11.67° C | 72% | 1024.6 hPa | - | - | - | - |
| 1777610587 | 10.56° C | 78% | 1024.7 hPa | - | - | - | - |
| 1777609687 | 8.33° C | 84% | 1024.6 hPa | - | - | - | - |
| 1777608787 | 6.11° C | 84% | 1024.3 hPa | - | - | - | - |
| 1777607887 | 5° C | 85% | 1024.2 hPa | - | - | - | - |
| 1777606987 | 5° C | 85% | 1024.2 hPa | - | - | - | - |
| 1777606087 | 5.56° C | 85% | 1024.3 hPa | - | - | - | - |
| 1777605187 | 5.56° C | 85% | 1024.2 hPa | - | - | - | - |
* Rain since midnight (hover to see other rain measurements)
** Current wind speed in m/s (hover to see current wind gust speed)